Time;durP1;ratioP1;P1;durP2;ratioP2;P2;SDS_P1;SDS_P2;PMS_P1;PMS_P2;Temp;Humidity;BMP_temperature;BMP_pressure;BME280_temperature;BME280_humidity;BME280_pressure;Samples;Min_cycle;Max_cycle;Signal;HPM_P1;HPM_P2
2021/05/14 00:01:09;;;;;;;6.33;4.50;;;12.80;99.90;;;;;;4174625;28;20481;-63
2021/05/14 00:03:10;;;;;;;4.67;4.00;;;12.80;99.90;;;;;;4175215;28;20055;-68
2021/05/14 00:05:11;;;;;;;6.20;3.90;;;12.70;99.90;;;;;;4174597;28;20563;-66
2021/05/14 00:07:12;;;;;;;7.90;4.97;;;12.70;99.90;;;;;;4175211;28;20061;-62
2021/05/14 00:09:15;;;;;;;9.07;5.07;;;12.70;99.90;;;;;;4174527;28;20115;-61
2021/05/14 00:11:16;;;;;;;5.80;5.20;;;12.70;99.90;;;;;;4175469;28;20430;-61
2021/05/14 00:13:18;;;;;;;6.13;5.47;;;12.60;99.90;;;;;;4177145;28;20110;-62
2021/05/14 00:15:19;;;;;;;7.80;6.13;;;12.60;99.90;;;;;;4191616;28;20094;-62
2021/05/14 00:17:20;;;;;;;6.93;6.17;;;12.60;99.90;;;;;;4191304;28;20074;-61
2021/05/14 00:19:23;;;;;;;10.20;6.83;;;12.60;99.90;;;;;;4191619;28;20054;-62
2021/05/14 00:21:29;;;;;;;8.73;6.87;;;12.60;99.90;;;;;;4192036;28;20597;-60
2021/05/14 00:23:31;;;;;;;9.13;7.17;;;12.50;99.90;;;;;;4191153;28;20021;-61
2021/05/14 00:25:32;;;;;;;10.87;7.97;;;12.50;99.90;;;;;;4191170;28;20118;-64
2021/05/14 00:27:33;;;;;;;10.77;7.30;;;12.50;99.90;;;;;;4191097;28;20077;-63
2021/05/14 00:29:34;;;;;;;9.23;6.83;;;12.50;99.90;;;;;;4177372;28;20041;-62
2021/05/14 00:31:35;;;;;;;8.67;7.23;;;12.50;99.90;;;;;;4172610;28;20028;-62
2021/05/14 00:33:36;;;;;;;10.30;7.80;;;12.50;99.90;;;;;;4174724;28;20041;-63
2021/05/14 00:35:38;;;;;;;9.30;7.40;;;12.50;99.90;;;;;;4174157;28;20037;-63
2021/05/14 00:37:39;;;;;;;12.83;8.23;;;12.50;99.90;;;;;;4174748;28;20041;-69
2021/05/14 00:39:40;;;;;;;13.40;7.50;;;12.50;99.90;;;;;;4174234;28;20569;-68
2021/05/14 00:41:41;;;;;;;11.37;8.63;;;12.50;99.90;;;;;;4174620;28;20059;-67
2021/05/14 00:43:43;;;;;;;10.00;7.57;;;12.50;99.90;;;;;;4174251;28;20037;-69
2021/05/14 00:45:44;;;;;;;9.90;8.00;;;12.40;99.90;;;;;;4174670;28;20041;-66
2021/05/14 00:47:45;;;;;;;11.40;7.90;;;12.40;99.90;;;;;;4174147;28;20032;-65
2021/05/14 00:49:47;;;;;;;12.80;8.33;;;12.40;99.90;;;;;;4174270;28;20098;-63
2021/05/14 00:51:49;;;;;;;11.40;7.33;;;12.40;99.90;;;;;;4174938;28;20102;-66
2021/05/14 00:53:50;;;;;;;9.03;5.80;;;12.40;99.90;;;;;;4174628;28;20091;-65
2021/05/14 00:55:51;;;;;;;9.07;6.47;;;12.30;99.90;;;;;;4174696;28;20070;-67
2021/05/14 00:57:53;;;;;;;9.20;5.93;;;12.30;99.90;;;;;;4173909;28;20102;-63
2021/05/14 00:59:54;;;;;;;8.00;6.30;;;12.20;99.90;;;;;;4174902;28;20025;-67
2021/05/14 01:01:55;;;;;;;9.53;6.17;;;12.20;99.90;;;;;;4173923;28;20118;-66
2021/05/14 01:03:56;;;;;;;11.37;6.50;;;12.20;99.90;;;;;;4174527;28;20098;-67
2021/05/14 01:05:57;;;;;;;9.47;6.00;;;12.10;99.90;;;;;;4174042;28;20590;-63
2021/05/14 01:07:58;;;;;;;7.77;6.37;;;12.10;99.90;;;;;;4174811;28;20033;-64
2021/05/14 01:09:59;;;;;;;12.20;7.20;;;12.10;99.90;;;;;;4172945;28;20107;-66
2021/05/14 01:12:01;;;;;;;10.33;6.80;;;12.10;99.90;;;;;;4174224;28;20087;-69
2021/05/14 01:14:03;;;;;;;12.07;8.57;;;12.10;99.90;;;;;;4173947;28;20045;-64
2021/05/14 01:16:04;;;;;;;12.23;8.60;;;12.10;99.90;;;;;;4174401;28;20082;-65
2021/05/14 01:18:05;;;;;;;13.73;9.23;;;12.10;99.90;;;;;;4173917;28;20032;-64
2021/05/14 01:20:07;;;;;;;13.67;8.93;;;12.00;99.90;;;;;;4174110;28;20485;-69
2021/05/14 01:22:08;;;;;;;10.30;8.63;;;12.10;99.90;;;;;;4174008;28;20056;-63
2021/05/14 01:24:09;;;;;;;11.93;8.73;;;12.10;99.90;;;;;;4174265;28;20033;-63
2021/05/14 01:26:13;;;;;;;12.97;7.73;;;12.10;99.90;;;;;;4174067;28;20049;-63
2021/05/14 01:28:14;;;;;;;12.20;7.93;;;12.10;99.90;;;;;;4173360;28;20440;-66
2021/05/14 01:30:16;;;;;;;9.20;6.07;;;12.10;99.90;;;;;;4174500;28;20086;-61
2021/05/14 01:32:17;;;;;;;7.77;6.33;;;12.10;99.90;;;;;;4173608;28;20025;-62
2021/05/14 01:34:18;;;;;;;10.30;6.07;;;12.10;99.90;;;;;;4174081;28;20048;-62
2021/05/14 01:36:19;;;;;;;6.63;5.70;;;12.10;99.90;;;;;;4173342;28;20079;-62
2021/05/14 01:38:22;;;;;;;8.93;6.43;;;12.00;99.90;;;;;;4173751;28;20041;-69
2021/05/14 01:40:23;;;;;;;6.83;5.63;;;12.10;99.90;;;;;;4173004;28;20045;-62
2021/05/14 01:42:24;;;;;;;7.53;5.20;;;12.10;99.90;;;;;;4174177;28;20026;-63
2021/05/14 01:44:26;;;;;;;6.70;4.93;;;12.10;99.90;;;;;;4173257;28;20067;-62
2021/05/14 01:46:27;;;;;;;6.17;4.90;;;12.10;99.90;;;;;;4174083;28;20483;-62
2021/05/14 01:48:28;;;;;;;6.23;4.70;;;12.10;99.90;;;;;;4173003;28;20029;-62
2021/05/14 01:50:29;;;;;;;8.53;5.07;;;12.10;99.90;;;;;;4173753;28;20025;-62
2021/05/14 01:52:30;;;;;;;6.17;5.30;;;12.20;99.90;;;;;;4173344;28;20037;-63
2021/05/14 01:54:31;;;;;;;6.37;5.23;;;12.20;99.90;;;;;;4173259;28;20056;-61
2021/05/14 01:56:33;;;;;;;6.23;4.83;;;12.20;99.90;;;;;;4173873;28;20558;-63
2021/05/14 01:58:34;;;;;;;4.07;3.63;;;12.20;99.90;;;;;;4172630;28;20118;-63
2021/05/14 02:00:35;;;;;;;7.37;4.47;;;12.20;99.90;;;;;;4173759;28;20086;-63
2021/05/14 02:02:36;;;;;;;8.03;4.53;;;12.10;99.90;;;;;;4172835;28;20025;-62
2021/05/14 02:04:37;;;;;;;4.07;3.63;;;12.10;99.90;;;;;;4173785;28;20147;-63
2021/05/14 02:06:38;;;;;;;7.30;3.93;;;12.10;99.90;;;;;;4173330;28;20033;-63
2021/05/14 02:08:39;;;;;;;3.57;2.87;;;12.10;99.90;;;;;;4173575;28;20098;-62
2021/05/14 02:10:40;;;;;;;2.93;2.63;;;12.10;99.90;;;;;;4172037;28;20536;-62
2021/05/14 02:12:41;;;;;;;3.17;2.60;;;12.00;99.90;;;;;;4173336;28;20049;-63
2021/05/14 02:14:43;;;;;;;5.20;2.30;;;12.00;99.90;;;;;;4171699;28;20110;-63
2021/05/14 02:16:44;;;;;;;3.33;2.33;;;12.00;99.90;;;;;;4173491;28;20091;-63
2021/05/14 02:18:45;;;;;;;3.93;2.67;;;12.00;99.90;;;;;;4172828;28;20395;-63
2021/05/14 02:20:47;;;;;;;3.30;2.20;;;11.90;99.90;;;;;;4172805;28;20083;-63
2021/05/14 02:22:48;;;;;;;2.67;2.23;;;11.90;99.90;;;;;;4173374;28;20086;-62
2021/05/14 02:24:50;;;;;;;2.83;2.53;;;11.90;99.90;;;;;;4172464;28;20048;-67
2021/05/14 02:26:51;;;;;;;3.03;2.73;;;11.80;99.90;;;;;;4173423;28;20090;-63
2021/05/14 02:28:52;;;;;;;1.93;1.73;;;11.80;99.90;;;;;;4172044;28;20052;-63
2021/05/14 02:30:54;;;;;;;2.37;2.13;;;11.90;99.90;;;;;;4173020;28;20041;-63
2021/05/14 02:32:55;;;;;;;2.83;2.13;;;11.90;99.90;;;;;;4171980;28;20053;-68
2021/05/14 02:34:56;;;;;;;4.43;2.13;;;11.80;99.90;;;;;;4172792;28;20041;-65
2021/05/14 02:36:57;;;;;;;3.53;2.10;;;11.80;99.90;;;;;;4172266;28;20037;-62
2021/05/14 02:38:58;;;;;;;5.57;2.67;;;11.80;99.90;;;;;;4173362;28;20041;-62
2021/05/14 02:41:00;;;;;;;4.33;2.77;;;11.70;99.90;;;;;;4171892;28;20037;-63
2021/05/14 02:43:01;;;;;;;4.40;2.57;;;11.70;99.90;;;;;;4172348;28;20048;-62
2021/05/14 02:45:05;;;;;;;3.83;2.40;;;11.70;99.90;;;;;;4172376;28;20505;-63
2021/05/14 02:47:07;;;;;;;4.60;3.07;;;11.70;99.90;;;;;;4173414;28;20029;-64
2021/05/14 02:49:09;;;;;;;5.60;3.13;;;11.70;99.90;;;;;;4171433;28;20409;-62
2021/05/14 02:51:10;;;;;;;3.73;3.07;;;11.80;99.90;;;;;;4171448;28;20576;-65
2021/05/14 02:53:12;;;;;;;3.10;2.70;;;11.80;99.90;;;;;;4172661;28;20070;-62
2021/05/14 02:55:13;;;;;;;5.13;2.87;;;11.80;99.90;;;;;;4171827;28;20082;-63
2021/05/14 02:57:14;;;;;;;6.63;4.37;;;11.80;99.90;;;;;;4172716;28;20134;-69
2021/05/14 02:59:15;;;;;;;3.93;3.53;;;11.80;99.90;;;;;;4172170;28;20013;-65
2021/05/14 03:01:16;;;;;;;5.07;3.10;;;11.70;99.90;;;;;;4172826;28;20032;-63
2021/05/14 03:03:17;;;;;;;2.60;2.40;;;11.70;99.90;;;;;;4171797;28;20041;-62
2021/05/14 03:05:19;;;;;;;3.17;2.80;;;11.70;99.90;;;;;;4172420;28;20029;-62
2021/05/14 03:07:20;;;;;;;3.20;2.90;;;11.70;99.90;;;;;;4171756;28;20028;-62
2021/05/14 03:09:21;;;;;;;4.90;3.03;;;11.60;99.90;;;;;;4172799;28;20041;-62
2021/05/14 03:11:22;;;;;;;3.83;3.43;;;11.60;99.90;;;;;;4171796;28;20033;-63
2021/05/14 03:13:24;;;;;;;6.63;3.70;;;11.70;99.90;;;;;;4173023;28;20091;-62
2021/05/14 03:15:26;;;;;;;6.10;3.30;;;11.70;99.90;;;;;;4171885;28;20033;-65
2021/05/14 03:17:27;;;;;;;5.57;3.80;;;11.70;99.90;;;;;;4172468;28;20030;-63
2021/05/14 03:19:28;;;;;;;5.00;3.63;;;11.60;99.90;;;;;;4171940;28;20083;-63
2021/05/14 03:21:31;;;;;;;4.97;3.43;;;11.60;99.90;;;;;;4173300;28;20735;-63
2021/05/14 03:23:32;;;;;;;8.27;3.93;;;11.60;99.90;;;;;;4172385;28;20025;-63
2021/05/14 03:25:33;;;;;;;4.13;3.40;;;11.60;99.90;;;;;;4171790;28;20057;-62
2021/05/14 03:27:34;;;;;;;3.47;3.17;;;11.60;99.90;;;;;;4172029;28;20037;-62
2021/05/14 03:29:36;;;;;;;5.30;3.00;;;11.60;99.90;;;;;;4171891;28;20386;-62
2021/05/14 03:31:38;;;;;;;5.20;3.43;;;11.60;99.90;;;;;;4183736;28;20032;-61
2021/05/14 03:33:39;;;;;;;4.30;3.53;;;11.60;99.90;;;;;;4188987;28;20118;-63
2021/05/14 03:35:40;;;;;;;4.83;4.03;;;11.60;99.90;;;;;;4192646;28;20036;-62
2021/05/14 03:37:41;;;;;;;5.23;3.57;;;11.60;99.90;;;;;;4191566;28;20051;-63
2021/05/14 03:39:45;;;;;;;4.07;3.53;;;11.70;99.90;;;;;;4192272;28;20074;-62
2021/05/14 03:44:13;;;;;;;4.27;3.00;;;11.70;99.90;;;;;;4167846;28;20116;-63
2021/05/14 03:46:14;;;;;;;4.93;3.50;;;11.80;99.90;;;;;;4191235;28;20037;-62
2021/05/14 03:48:19;;;;;;;3.60;3.27;;;11.80;99.90;;;;;;4191062;28;20381;-61
2021/05/14 03:50:22;;;;;;;7.70;3.93;;;11.80;99.90;;;;;;4191270;28;20098;-61
2021/05/14 03:52:23;;;;;;;4.10;3.60;;;11.80;99.90;;;;;;4176669;28;20025;-61
2021/05/14 03:54:24;;;;;;;4.83;3.87;;;11.80;99.90;;;;;;4174649;28;20098;-62
2021/05/14 03:56:25;;;;;;;5.63;3.90;;;11.80;99.90;;;;;;4175085;28;20068;-62
2021/05/14 03:58:26;;;;;;;4.70;3.97;;;11.80;99.90;;;;;;4174445;28;20087;-62
2021/05/14 04:00:27;;;;;;;5.87;4.97;;;11.80;99.90;;;;;;4174437;28;20053;-64
2021/05/14 04:02:28;;;;;;;5.73;4.17;;;11.80;99.90;;;;;;4174773;28;20086;-63
2021/05/14 04:04:30;;;;;;;6.50;4.43;;;11.80;99.90;;;;;;4174491;28;20094;-63
2021/05/14 04:06:31;;;;;;;7.30;5.10;;;11.80;99.90;;;;;;4175222;28;20071;-63
2021/05/14 04:08:32;;;;;;;6.90;4.80;;;11.70;99.90;;;;;;4173673;28;20170;-62
2021/05/14 04:14:39;;;;;;;5.90;5.30;;;11.80;99.90;;;;;;4174950;28;20151;-61
2021/05/14 04:16:40;;;;;;;7.07;5.00;;;11.80;99.90;;;;;;4174285;28;20040;-63
2021/05/14 04:18:41;;;;;;;6.37;5.30;;;11.80;99.90;;;;;;4175103;28;20045;-63
2021/05/14 04:20:45;;;;;;;5.50;4.67;;;11.80;99.90;;;;;;4173327;28;20037;-63
2021/05/14 04:22:46;;;;;;;7.43;5.63;;;11.80;99.90;;;;;;4175526;28;20033;-66
2021/05/14 04:24:47;;;;;;;6.30;5.00;;;11.80;99.90;;;;;;4173753;28;20799;-62
2021/05/14 04:26:56;;;;;;;5.80;5.07;;;11.80;99.90;;;;;;4174818;28;20495;-63
2021/05/14 04:28:57;;;;;;;6.20;5.20;;;11.80;99.90;;;;;;4173213;28;20477;-64
2021/05/14 04:30:58;;;;;;;8.33;6.17;;;11.80;99.90;;;;;;4174570;28;20555;-65
2021/05/14 04:32:59;;;;;;;10.73;6.83;;;11.80;99.90;;;;;;4171089;28;20041;-63
2021/05/14 04:35:01;;;;;;;8.77;6.40;;;11.80;99.90;;;;;;4173404;28;20734;-64
2021/05/14 04:37:03;;;;;;;7.93;6.60;;;11.80;99.90;;;;;;4173997;28;20082;-66
2021/05/14 04:39:06;;;;;;;8.60;6.43;;;11.80;99.90;;;;;;4172593;28;20048;-62
2021/05/14 04:41:07;;;;;;;8.13;6.90;;;11.80;99.90;;;;;;4173696;28;20641;-62
2021/05/14 04:43:08;;;;;;;9.03;5.93;;;11.90;99.90;;;;;;4173443;28;20674;-64
2021/05/14 04:45:10;;;;;;;8.90;5.90;;;11.90;99.90;;;;;;4172949;28;20432;-63
2021/05/14 04:47:11;;;;;;;8.43;6.20;;;11.90;99.90;;;;;;4173423;28;20029;-64
2021/05/14 04:49:12;;;;;;;7.43;6.40;;;11.90;99.90;;;;;;4174051;28;20515;-62
2021/05/14 04:51:13;;;;;;;6.93;6.17;;;11.90;99.90;;;;;;4172703;28;20554;-66
2021/05/14 04:53:15;;;;;;;8.00;6.83;;;11.90;99.90;;;;;;4173973;28;20424;-63
2021/05/14 04:55:16;;;;;;;9.83;6.53;;;11.90;99.90;;;;;;4173184;28;20036;-66
2021/05/14 04:57:17;;;;;;;10.30;6.77;;;11.90;99.90;;;;;;4173287;28;20502;-65
2021/05/14 04:59:19;;;;;;;7.27;6.40;;;11.90;99.90;;;;;;4173021;28;20029;-62
2021/05/14 05:01:20;;;;;;;9.17;6.47;;;11.90;99.90;;;;;;4173890;28;20036;-62
2021/05/14 05:03:21;;;;;;;8.07;7.20;;;11.90;99.90;;;;;;4173384;28;20426;-62
2021/05/14 05:05:23;;;;;;;14.27;8.23;;;11.90;99.90;;;;;;4174047;28;20033;-63
2021/05/14 05:07:25;;;;;;;10.07;8.17;;;11.90;99.90;;;;;;4172866;28;20053;-65
2021/05/14 05:09:26;;;;;;;9.43;7.27;;;11.90;99.90;;;;;;4173055;28;20033;-62
2021/05/14 05:11:27;;;;;;;9.40;6.87;;;11.90;99.90;;;;;;4173576;28;20028;-61
2021/05/14 05:13:28;;;;;;;10.77;7.47;;;11.90;99.90;;;;;;4173618;28;20028;-63
2021/05/14 05:15:30;;;;;;;13.57;7.50;;;11.90;99.90;;;;;;4173392;28;20486;-62
2021/05/14 05:17:31;;;;;;;7.87;6.83;;;11.90;99.90;;;;;;4172417;28;20033;-63
2021/05/14 05:19:32;;;;;;;11.33;7.47;;;12.00;99.90;;;;;;4173756;28;20083;-65
2021/05/14 05:21:33;;;;;;;10.93;8.43;;;12.00;99.90;;;;;;4172798;28;20083;-62
2021/05/14 05:23:34;;;;;;;14.60;7.97;;;12.00;99.90;;;;;;4174529;28;20071;-61
2021/05/14 05:25:35;;;;;;;10.00;8.10;;;12.10;99.90;;;;;;4172483;28;20049;-62
2021/05/14 05:27:37;;;;;;;11.53;7.77;;;12.10;99.90;;;;;;4172248;28;20455;-64
2021/05/14 05:29:38;;;;;;;10.13;8.00;;;12.20;99.90;;;;;;4172780;28;20083;-62
2021/05/14 05:31:39;;;;;;;9.90;8.07;;;12.20;99.90;;;;;;4173762;28;20032;-62
2021/05/14 05:33:40;;;;;;;8.57;6.70;;;12.20;99.90;;;;;;4172504;28;20878;-62
2021/05/14 05:35:41;;;;;;;8.60;7.20;;;12.30;99.90;;;;;;4173105;28;20094;-61
2021/05/14 05:37:43;;;;;;;8.30;6.80;;;12.20;99.90;;;;;;4173102;28;20091;-62
2021/05/14 05:39:44;;;;;;;7.00;6.27;;;12.20;99.90;;;;;;4173304;28;20107;-61
2021/05/14 05:41:45;;;;;;;11.90;8.00;;;12.30;99.90;;;;;;4173149;28;20037;-61
2021/05/14 05:43:46;;;;;;;8.83;7.33;;;12.30;99.90;;;;;;4173071;28;20044;-62
2021/05/14 05:45:48;;;;;;;10.57;7.20;;;12.40;99.90;;;;;;4173243;28;20047;-62
2021/05/14 05:47:49;;;;;;;9.33;7.40;;;12.40;99.90;;;;;;4172069;28;20036;-63
2021/05/14 05:49:50;;;;;;;9.17;7.10;;;12.50;99.90;;;;;;4172795;28;20044;-62
2021/05/14 05:51:53;;;;;;;10.97;7.50;;;12.50;99.90;;;;;;4171730;28;20033;-62
2021/05/14 05:53:54;;;;;;;9.03;6.87;;;12.60;99.90;;;;;;4173462;28;20037;-61
2021/05/14 05:55:56;;;;;;;9.03;7.37;;;12.70;99.90;;;;;;4170670;28;20048;-61
2021/05/14 05:58:04;;;;;;;10.50;7.13;;;12.70;99.90;;;;;;4157508;28;20033;-63
2021/05/14 06:00:06;;;;;;;9.80;8.07;;;12.80;99.90;;;;;;4156871;28;20032;-63
2021/05/14 06:02:07;;;;;;;7.90;5.73;;;12.90;99.90;;;;;;4172293;28;20033;-64
2021/05/14 06:04:08;;;;;;;7.17;4.73;;;13.00;99.90;;;;;;4170089;28;20044;-66
2021/05/14 06:06:09;;;;;;;6.80;4.23;;;13.00;99.90;;;;;;4171119;28;20033;-62
2021/05/14 06:08:11;;;;;;;5.87;3.33;;;13.10;99.90;;;;;;4169999;28;20094;-62
2021/05/14 06:10:12;;;;;;;7.37;4.27;;;13.10;99.90;;;;;;4171096;28;20083;-65
2021/05/14 06:12:13;;;;;;;7.97;4.27;;;13.20;99.90;;;;;;4170679;28;20029;-64
2021/05/14 06:14:15;;;;;;;7.30;4.03;;;13.20;99.90;;;;;;4169417;28;20025;-64
2021/05/14 06:16:17;;;;;;;6.07;4.47;;;13.30;99.90;;;;;;4170537;28;20118;-63
2021/05/14 06:18:21;;;;;;;5.67;3.70;;;13.40;99.90;;;;;;4170610;28;20029;-63
2021/05/14 06:20:25;;;;;;;4.53;3.10;;;13.50;99.90;;;;;;4169420;28;20071;-63
2021/05/14 06:22:26;;;;;;;3.50;3.20;;;13.50;99.90;;;;;;4171515;28;20122;-64
2021/05/14 06:24:27;;;;;;;5.20;3.73;;;13.60;99.90;;;;;;4171447;28;20070;-70
2021/05/14 06:26:29;;;;;;;6.03;4.17;;;13.70;99.90;;;;;;4171376;28;20033;-66
2021/05/14 06:28:30;;;;;;;3.97;3.50;;;13.70;99.90;;;;;;4172160;28;20546;-71
2021/05/14 06:30:31;;;;;;;7.10;3.67;;;13.80;99.90;;;;;;4170420;28;20094;-65
2021/05/14 06:32:33;;;;;;;6.80;4.03;;;13.90;99.90;;;;;;4173430;28;20036;-66
2021/05/14 06:34:35;;;;;;;5.70;3.90;;;14.00;99.90;;;;;;4169825;28;20424;-65
2021/05/14 06:36:36;;;;;;;6.03;3.70;;;14.00;99.90;;;;;;4172217;28;20029;-65
2021/05/14 06:38:38;;;;;;;8.07;4.07;;;14.00;99.90;;;;;;4170325;28;20033;-67
2021/05/14 06:40:39;;;;;;;4.80;3.77;;;14.10;99.90;;;;;;4171381;28;20037;-63
2021/05/14 06:42:40;;;;;;;8.70;4.10;;;14.10;99.90;;;;;;4171443;28;20032;-67
2021/05/14 06:44:41;;;;;;;4.73;3.63;;;14.10;99.90;;;;;;4170864;28;20040;-69
2021/05/14 06:46:44;;;;;;;6.20;4.37;;;14.20;99.90;;;;;;4170337;28;20044;-70
2021/05/14 06:48:47;;;;;;;9.37;6.83;;;14.30;99.90;;;;;;4170181;28;20500;-69
2021/05/14 06:50:48;;;;;;;7.90;4.03;;;14.30;99.90;;;;;;4171811;28;20568;-67
2021/05/14 06:52:49;;;;;;;6.43;3.80;;;14.40;99.90;;;;;;4171189;28;20087;-68
2021/05/14 06:54:50;;;;;;;7.07;4.10;;;14.40;99.90;;;;;;4171394;28;20033;-67
2021/05/14 06:56:51;;;;;;;11.17;3.60;;;14.50;99.90;;;;;;4169927;28;20103;-64
2021/05/14 06:58:55;;;;;;;6.10;4.20;;;14.50;99.90;;;;;;4172045;28;20551;-64
2021/05/14 07:00:56;;;;;;;7.20;4.50;;;14.50;99.90;;;;;;4175192;28;20037;-64
2021/05/14 07:02:58;;;;;;;6.93;4.27;;;14.50;99.90;;;;;;4171635;28;20440;-67
2021/05/14 07:04:59;;;;;;;7.63;3.87;;;14.50;99.90;;;;;;4168644;28;20078;-64
2021/05/14 07:07:00;;;;;;;5.67;3.03;;;14.40;99.90;;;;;;4170591;28;20398;-69
2021/05/14 07:09:03;;;;;;;4.03;3.03;;;14.40;99.90;;;;;;4170792;28;20029;-65
2021/05/14 07:11:04;;;;;;;4.10;3.30;;;14.50;99.90;;;;;;4173005;28;20036;-63
2021/05/14 07:13:05;;;;;;;3.70;3.07;;;14.60;99.90;;;;;;4171984;28;20086;-67
2021/05/14 07:15:09;;;;;;;3.97;2.70;;;14.70;99.90;;;;;;4171681;28;20065;-64
2021/05/14 07:17:10;;;;;;;5.23;2.80;;;14.70;99.90;;;;;;4172702;28;20467;-68
2021/05/14 07:19:13;;;;;;;5.87;3.20;;;15.00;99.90;;;;;;4171196;28;20048;-65
2021/05/14 07:21:16;;;;;;;5.63;3.40;;;15.00;99.90;;;;;;4171461;28;20083;-63
2021/05/14 07:23:17;;;;;;;7.37;3.50;;;15.00;99.90;;;;;;4172107;28;20799;-63
2021/05/14 07:25:18;;;;;;;6.55;2.92;;;15.00;99.90;;;;;;4174697;28;20037;-65
2021/05/14 07:27:19;;;;;;;3.57;3.23;;;15.10;99.90;;;;;;4171242;28;20438;-62
2021/05/14 07:29:20;;;;;;;5.00;3.00;;;15.30;99.90;;;;;;4171951;28;20028;-62
2021/05/14 07:31:24;;;;;;;3.10;2.80;;;15.40;99.90;;;;;;4171306;28;20086;-60
2021/05/14 07:33:25;;;;;;;11.35;3.33;;;15.50;99.90;;;;;;4172282;28;20344;-62
2021/05/14 07:35:26;;;;;;;5.75;2.95;;;15.60;99.90;;;;;;4170576;28;20095;-62
2021/05/14 07:37:27;;;;;;;3.03;2.83;;;15.60;99.90;;;;;;4172770;28;20366;-67
2021/05/14 07:39:28;;;;;;;5.15;2.78;;;15.80;99.90;;;;;;4171020;28;20106;-63
2021/05/14 07:41:31;;;;;;;3.00;2.65;;;16.00;99.90;;;;;;4171578;28;20493;-68
2021/05/14 07:43:32;;;;;;;3.55;3.13;;;16.20;99.90;;;;;;4171363;28;20033;-67
2021/05/14 07:45:33;;;;;;;14.35;3.30;;;16.40;99.90;;;;;;4171968;28;20033;-69
2021/05/14 07:47:34;;;;;;;5.65;4.38;;;16.40;99.90;;;;;;4170783;28;20060;-64
2021/05/14 07:49:35;;;;;;;4.47;3.08;;;16.40;99.90;;;;;;4171423;28;20098;-69
2021/05/14 07:51:36;;;;;;;3.50;2.92;;;16.40;99.90;;;;;;4171918;28;20818;-68
2021/05/14 07:53:38;;;;;;;3.88;2.45;;;16.40;99.90;;;;;;4181070;28;20028;-68
2021/05/14 07:55:39;;;;;;;2.67;2.47;;;16.60;99.90;;;;;;4188580;28;20562;-68
2021/05/14 07:57:40;;;;;;;6.85;2.45;;;16.80;99.90;;;;;;4188601;28;20387;-69
2021/05/14 07:59:41;;;;;;;4.07;2.10;;;17.00;99.90;;;;;;4189196;28;20062;-69
2021/05/14 08:01:42;;;;;;;3.05;2.17;;;17.20;99.90;;;;;;4186033;28;20074;-61
2021/05/14 08:03:44;;;;;;;2.08;1.88;;;17.40;99.90;;;;;;4187906;28;20074;-64
2021/05/14 08:05:50;;;;;;;2.80;2.20;;;17.60;99.90;;;;;;4187438;28;20033;-69
2021/05/14 08:08:11;;;;;;;3.60;3.28;;;17.80;99.90;;;;;;4174534;28;20025;-70
2021/05/14 08:10:13;;;;;;;15.18;7.68;;;17.80;99.90;;;;;;4171481;28;20091;-68
2021/05/14 08:12:14;;;;;;;8.15;3.92;;;17.40;99.90;;;;;;4172208;28;20029;-65
2021/05/14 08:14:17;;;;;;;8.35;4.70;;;17.40;99.90;;;;;;4170113;28;20420;-68
2021/05/14 08:16:18;;;;;;;7.00;5.55;;;17.50;99.90;;;;;;4172075;28;20107;-62
2021/05/14 08:18:21;;;;;;;3.75;3.00;;;17.50;99.90;;;;;;4170700;28;20056;-66
2021/05/14 08:20:23;;;;;;;4.65;2.60;;;17.50;99.90;;;;;;4174644;28;20036;-68
2021/05/14 08:22:24;;;;;;;6.78;2.80;;;17.50;99.90;;;;;;4174470;28;20499;-67
2021/05/14 08:24:26;;;;;;;5.70;1.92;;;17.40;99.90;;;;;;4174427;28;20036;-64
2021/05/14 08:26:28;;;;;;;3.42;2.28;;;17.20;99.90;;;;;;4173974;28;20048;-66
2021/05/14 08:28:29;;;;;;;1.45;1.20;;;17.10;99.90;;;;;;4173926;28;20493;-69
2021/05/14 08:30:30;;;;;;;2.35;1.48;;;16.80;99.90;;;;;;4174329;28;20107;-67
2021/05/14 08:32:31;;;;;;;6.28;1.42;;;16.40;99.90;;;;;;4174471;28;20041;-67
2021/05/14 08:34:33;;;;;;;4.10;1.45;;;16.10;99.90;;;;;;4175144;28;20049;-68
2021/05/14 08:36:34;;;;;;;7.63;1.50;;;15.60;99.90;;;;;;4173932;28;20202;-65
2021/05/14 08:38:35;;;;;;;5.40;1.75;;;15.10;99.90;;;;;;4172724;28;20075;-64
2021/05/14 08:40:38;;;;;;;2.25;1.50;;;14.70;99.90;;;;;;4171823;28;20505;-68
2021/05/14 08:42:41;;;;;;;1.80;1.20;;;14.40;99.90;;;;;;4175184;28;20846;-69
2021/05/14 08:44:43;;;;;;;1.73;1.33;;;14.20;99.90;;;;;;4173596;28;20033;-63
2021/05/14 08:46:44;;;;;;;3.08;0.82;;;14.20;99.90;;;;;;4174310;28;20028;-67
2021/05/14 08:48:46;;;;;;;1.50;0.70;;;14.10;99.90;;;;;;4173341;28;20032;-70
2021/05/14 08:50:47;;;;;;;3.23;0.40;;;14.10;99.90;;;;;;4174676;28;20067;-64
2021/05/14 08:52:48;;;;;;;4.03;0.30;;;14.10;99.90;;;;;;4172775;28;20094;-65
2021/05/14 08:54:50;;;;;;;1.50;0.52;;;14.10;99.90;;;;;;4173587;28;20075;-64
2021/05/14 08:56:51;;;;;;;0.95;0.38;;;14.10;99.90;;;;;;4173175;28;20045;-63
2021/05/14 08:58:52;;;;;;;1.70;0.30;;;14.10;99.90;;;;;;4173894;28;20033;-64
2021/05/14 09:00:53;;;;;;;0.83;0.10;;;14.10;99.90;;;;;;4174024;28;20040;-65
2021/05/14 09:02:54;;;;;;;0.70;0.30;;;14.00;99.90;;;;;;4172854;28;20053;-63
2021/05/14 09:04:56;;;;;;;2.33;0.47;;;13.90;99.90;;;;;;4171778;28;20053;-62
2021/05/14 09:06:57;;;;;;;5.83;0.77;;;13.90;99.90;;;;;;4173362;28;20434;-63
2021/05/14 09:09:00;;;;;;;0.87;0.53;;;13.90;99.90;;;;;;4173333;28;20036;-62
2021/05/14 09:11:02;;;;;;;0.97;0.40;;;13.90;99.90;;;;;;4172264;28;20082;-63
2021/05/14 09:13:12;;;;;;;0.80;0.40;;;13.90;99.90;;;;;;4173911;28;20055;-63
2021/05/14 09:15:34;;;;;;;1.97;0.17;;;14.00;99.90;;;;;;4173311;28;20071;-63
2021/05/14 09:17:35;;;;;;;1.63;0.30;;;14.10;99.90;;;;;;4173997;28;20431;-65
2021/05/14 09:19:39;;;;;;;1.60;0.50;;;14.20;99.90;;;;;;4173564;28;20037;-64
2021/05/14 09:21:40;;;;;;;0.70;0.40;;;14.30;99.90;;;;;;4174144;28;20420;-64
2021/05/14 09:23:41;;;;;;;3.27;0.40;;;14.40;99.90;;;;;;4173678;28;20100;-62
2021/05/14 09:25:56;;;;;;;0.53;0.27;;;14.50;99.90;;;;;;4174056;28;20041;-64
2021/05/14 09:27:58;;;;;;;1.23;0.30;;;14.50;99.90;;;;;;4173637;28;20520;-64
2021/05/14 09:30:01;;;;;;;3.33;0.30;;;14.40;99.90;;;;;;4174243;28;20082;-64
2021/05/14 09:32:22;;;;;;;1.33;0.37;;;14.30;99.90;;;;;;4173151;28;20071;-64
2021/05/14 09:34:30;;;;;;;;;;;14.30;99.90;;;;;;4174743;28;20029;-63
2021/05/14 09:36:35;;;;;;;1.13;0.30;;;14.20;99.90;;;;;;4172820;28;20011;-63
2021/05/14 09:38:41;;;;;;;0.97;0.27;;;14.20;99.90;;;;;;4173646;28;20443;-63
2021/05/14 09:40:42;;;;;;;1.73;0.40;;;14.20;99.90;;;;;;4172919;28;20040;-63
2021/05/14 09:42:44;;;;;;;0.70;0.40;;;14.30;99.90;;;;;;4174268;28;20124;-64
2021/05/14 09:44:45;;;;;;;3.20;0.40;;;14.40;99.90;;;;;;4171875;28;20051;-63
2021/05/14 09:46:55;;;;;;;4.33;0.97;;;14.50;99.90;;;;;;4173569;28;20033;-63
2021/05/14 09:49:02;;;;;;;11.27;3.60;;;14.60;99.90;;;;;;4171818;28;20493;-63
2021/05/14 09:51:04;;;;;;;3.00;1.43;;;14.70;99.90;;;;;;4172900;28;20036;-61
2021/05/14 09:53:16;;;;;;;2.30;0.80;;;14.70;99.90;;;;;;4173125;28;20086;-64
2021/05/14 09:55:24;;;;;;;4.80;0.70;;;14.80;99.90;;;;;;4173594;28;20029;-63
2021/05/14 09:59:31;;;;;;;2.13;1.03;;;14.70;99.90;;;;;;4172727;28;20385;-65
2021/05/14 10:01:33;;;;;;;4.57;1.77;;;14.70;99.90;;;;;;4172720;28;20117;-67
2021/05/14 10:03:35;;;;;;;3.30;1.70;;;14.70;99.90;;;;;;4172059;28;20639;-63
2021/05/14 10:05:37;;;;;;;2.15;1.35;;;14.90;99.90;;;;;;4172248;28;20088;-64
2021/05/14 10:07:40;;;;;;;3.58;1.20;;;14.90;99.90;;;;;;4172132;28;20033;-64
2021/05/14 10:09:42;;;;;;;4.57;1.20;;;14.90;99.90;;;;;;4172771;28;20424;-63
2021/05/14 10:11:43;;;;;;;2.53;1.40;;;15.00;99.90;;;;;;4171644;28;20499;-63
2021/05/14 10:13:45;;;;;;;2.88;1.40;;;15.10;99.90;;;;;;4172967;28;20032;-67
2021/05/14 10:15:46;;;;;;;2.75;1.10;;;15.30;99.90;;;;;;4172488;28;20107;-62
2021/05/14 10:17:51;;;;;;;2.08;1.20;;;15.40;99.90;;;;;;4725503;22;21823;-64
2021/05/14 10:19:55;;;;;;;3.15;1.70;;;15.50;99.90;;;;;;4155110;28;20045;-64
2021/05/14 10:21:56;;;;;;;1.95;0.80;;;15.70;99.90;;;;;;4151239;28;20589;-64
2021/05/14 10:23:58;;;;;;;0.63;0.60;;;15.80;99.90;;;;;;4152401;28;20045;-65
2021/05/14 10:26:07;;;;;;;1.80;0.70;;;16.00;99.90;;;;;;4150368;28;20543;-63
2021/05/14 10:28:15;;;;;;;2.38;0.77;;;16.20;99.90;;;;;;4152490;28;20099;-64
2021/05/14 10:30:16;;;;;;;2.30;0.85;;;16.50;99.90;;;;;;4152259;28;20037;-64
2021/05/14 10:32:43;;;;;;;2.22;0.80;;;16.70;99.90;;;;;;4152988;28;20465;-64
2021/05/14 10:34:45;;;;;;;4.30;1.20;;;16.70;99.90;;;;;;4151992;28;20449;-63
2021/05/14 10:36:47;;;;;;;7.43;0.70;;;16.80;99.90;;;;;;4156638;28;20064;-67
2021/05/14 10:39:17;;;;;;;2.05;0.70;;;16.80;99.90;;;;;;4152976;28;20397;-62
2021/05/14 10:41:27;;;;;;;0.45;0.20;;;16.70;99.90;;;;;;4166921;28;20112;-66
2021/05/14 10:43:48;;;;;;;;;;;16.90;99.90;;;;;;4150085;28;20347;-65